createdAt,value
2023-02-23T00:00:22.890Z,385
2023-02-23T00:01:21.623Z,376
2023-02-23T00:02:22.283Z,367
2023-02-23T00:03:21.403Z,373
2023-02-23T00:04:21.631Z,377
2023-02-23T00:05:21.458Z,378
2023-02-23T00:06:21.514Z,376
2023-02-23T00:07:21.149Z,381
2023-02-23T00:08:21.438Z,375
2023-02-23T00:09:21.734Z,378
2023-02-23T00:10:21.434Z,366
2023-02-23T00:11:21.367Z,361
2023-02-23T00:12:21.052Z,367
2023-02-23T00:13:21.193Z,375
2023-02-23T00:14:21.283Z,373
2023-02-23T00:15:21.421Z,370
2023-02-23T00:17:21.993Z,375
2023-02-23T00:18:20.942Z,374
2023-02-23T00:19:21.114Z,367
2023-02-23T00:20:21.525Z,371
2023-02-23T00:21:21.549Z,367
2023-02-23T00:22:21.710Z,369
2023-02-23T00:23:21.656Z,377
2023-02-23T00:24:21.141Z,372
2023-02-23T00:25:22.157Z,374
2023-02-23T00:26:21.140Z,378
2023-02-23T00:27:21.285Z,380
2023-02-23T00:28:21.296Z,384
2023-02-23T00:29:21.354Z,381
2023-02-23T00:30:21.933Z,390
2023-02-23T00:31:21.575Z,392
2023-02-23T00:33:21.047Z,372
2023-02-23T00:34:21.432Z,365
2023-02-23T00:35:21.475Z,369
2023-02-23T00:36:21.692Z,385
2023-02-23T00:37:20.317Z,395
2023-02-23T00:38:21.505Z,388
2023-02-23T00:39:21.308Z,381
2023-02-23T00:40:21.456Z,373
2023-02-23T00:41:21.711Z,383
2023-02-23T00:42:21.626Z,384
2023-02-23T00:43:21.827Z,366
2023-02-23T00:44:21.011Z,370
2023-02-23T00:45:21.807Z,375
2023-02-23T00:46:21.690Z,387
2023-02-23T00:47:21.062Z,391
2023-02-23T00:48:20.866Z,387
2023-02-23T00:49:21.827Z,380
2023-02-23T00:50:21.984Z,379
2023-02-23T00:51:21.475Z,378
2023-02-23T00:52:22.109Z,388
2023-02-23T00:53:20.932Z,387
2023-02-23T00:54:21.287Z,377
2023-02-23T00:55:21.634Z,373
2023-02-23T00:56:21.787Z,386
2023-02-23T00:57:21.321Z,390
2023-02-23T00:58:21.268Z,392
2023-02-23T00:59:21.502Z,384
2023-02-23T01:00:22.987Z,375
2023-02-23T01:01:24.259Z,372
2023-02-23T01:02:21.831Z,385
2023-02-23T01:03:21.157Z,392
2023-02-23T01:04:21.703Z,383
2023-02-23T01:06:22.547Z,375
2023-02-23T01:07:21.598Z,371
2023-02-23T01:08:21.711Z,361
2023-02-23T01:09:21.728Z,372
2023-02-23T01:10:21.960Z,374
2023-02-23T01:12:21.834Z,376
2023-02-23T01:13:21.556Z,375
2023-02-23T01:14:21.713Z,383
2023-02-23T01:15:21.967Z,385
2023-02-23T01:16:22.220Z,388
2023-02-23T01:18:21.321Z,385
2023-02-23T01:19:21.879Z,387
2023-02-23T01:20:21.694Z,383
2023-02-23T01:21:21.797Z,394
2023-02-23T01:22:21.297Z,378
2023-02-23T01:23:21.295Z,374
2023-02-23T01:24:21.032Z,376
2023-02-23T01:25:21.325Z,371
2023-02-23T01:27:21.266Z,367
2023-02-23T01:28:21.538Z,366
2023-02-23T01:29:20.802Z,374
2023-02-23T01:30:21.567Z,371
2023-02-23T01:31:22.112Z,378
2023-02-23T01:32:21.273Z,387
2023-02-23T01:33:21.149Z,377
2023-02-23T01:34:21.044Z,378
2023-02-23T01:35:21.388Z,382
2023-02-23T01:37:21.985Z,383
2023-02-23T01:38:21.554Z,384
2023-02-23T01:39:21.533Z,390
2023-02-23T01:40:21.238Z,388
2023-02-23T01:42:20.754Z,387
2023-02-23T01:43:21.674Z,381
2023-02-23T01:44:20.909Z,376
2023-02-23T01:46:21.247Z,384
2023-02-23T01:48:20.428Z,375
2023-02-23T01:49:20.690Z,371
2023-02-23T01:50:21.119Z,370
2023-02-23T01:51:21.179Z,377
2023-02-23T01:52:21.390Z,379
2023-02-23T01:53:20.613Z,391
2023-02-23T01:54:22.125Z,380
2023-02-23T01:57:21.117Z,378
2023-02-23T01:58:21.797Z,390
2023-02-23T01:59:21.159Z,385
2023-02-23T02:00:23.387Z,387
2023-02-23T02:01:22.015Z,384
2023-02-23T02:02:22.169Z,386
2023-02-23T02:03:21.430Z,381
2023-02-23T02:04:21.450Z,378
2023-02-23T02:05:21.782Z,380
2023-02-23T02:06:22.058Z,385
2023-02-23T02:07:21.905Z,382
2023-02-23T02:09:21.036Z,381
2023-02-23T02:11:21.643Z,384
2023-02-23T02:12:22.325Z,387
2023-02-23T02:13:21.282Z,376
2023-02-23T02:14:21.597Z,371
2023-02-23T02:15:22.309Z,379
2023-02-23T02:16:21.665Z,389
2023-02-23T02:17:21.236Z,396
2023-02-23T02:18:21.176Z,383
2023-02-23T02:19:21.284Z,372
2023-02-23T02:20:21.313Z,375
2023-02-23T02:21:21.765Z,385
2023-02-23T02:22:20.979Z,398
2023-02-23T02:24:21.194Z,384
2023-02-23T02:26:21.176Z,392
2023-02-23T02:27:20.976Z,395
2023-02-23T02:28:21.342Z,389
2023-02-23T02:29:21.135Z,380
2023-02-23T02:30:21.151Z,380
2023-02-23T02:31:21.759Z,376
2023-02-23T02:32:21.552Z,384
2023-02-23T02:34:21.798Z,391
2023-02-23T02:35:20.984Z,386
2023-02-23T02:36:22.595Z,379
2023-02-23T02:37:21.298Z,388
2023-02-23T02:39:21.105Z,392
2023-02-23T02:41:21.145Z,386
2023-02-23T02:42:21.268Z,385
2023-02-23T02:43:21.564Z,380
2023-02-23T02:44:21.306Z,384
2023-02-23T02:45:20.973Z,382
2023-02-23T02:46:21.434Z,383
2023-02-23T02:48:20.574Z,394
2023-02-23T02:49:21.443Z,386
2023-02-23T02:51:21.858Z,402
2023-02-23T02:52:20.702Z,388
2023-02-23T02:53:21.457Z,394
2023-02-23T02:55:21.338Z,392
2023-02-23T02:56:21.194Z,389
2023-02-23T02:57:21.618Z,390
2023-02-23T02:58:20.977Z,391
2023-02-23T03:00:22.916Z,394
2023-02-23T03:01:22.052Z,393
2023-02-23T03:02:21.657Z,377
2023-02-23T03:03:20.974Z,389
2023-02-23T03:04:21.127Z,390
2023-02-23T03:05:22.058Z,395
2023-02-23T03:07:21.676Z,402
2023-02-23T03:08:21.241Z,399
2023-02-23T03:09:21.186Z,397
2023-02-23T03:10:21.347Z,400
2023-02-23T03:11:21.466Z,402
2023-02-23T03:12:21.166Z,410
2023-02-23T03:13:21.028Z,403
2023-02-23T03:14:21.154Z,395
2023-02-23T03:15:21.373Z,404
2023-02-23T03:16:21.515Z,424
2023-02-23T03:17:21.701Z,427
2023-02-23T03:18:21.335Z,422
2023-02-23T03:19:21.724Z,419
2023-02-23T03:20:21.845Z,412
2023-02-23T03:21:21.774Z,410
2023-02-23T03:22:21.788Z,408
2023-02-23T03:23:21.572Z,403
2023-02-23T03:24:21.414Z,400
2023-02-23T03:25:21.622Z,401
2023-02-23T03:26:21.229Z,411
2023-02-23T03:28:21.181Z,405
2023-02-23T03:29:20.961Z,411
2023-02-23T03:30:21.490Z,415
2023-02-23T03:31:22.451Z,418
2023-02-23T03:32:22.002Z,411
2023-02-23T03:33:21.728Z,406
2023-02-23T03:35:21.960Z,399
2023-02-23T03:36:22.138Z,400
2023-02-23T03:37:22.225Z,398
2023-02-23T03:38:21.547Z,392
2023-02-23T03:39:21.323Z,381
2023-02-23T03:40:22.101Z,371
2023-02-23T03:41:21.945Z,380
2023-02-23T03:42:21.602Z,377
2023-02-23T03:43:21.636Z,374
2023-02-23T03:44:21.595Z,378
2023-02-23T03:45:21.995Z,376
2023-02-23T03:48:21.829Z,379
2023-02-23T03:49:21.031Z,378
2023-02-23T03:50:21.335Z,380
2023-02-23T03:51:21.880Z,375
2023-02-23T03:52:21.945Z,374
2023-02-23T03:53:21.142Z,373
2023-02-23T03:54:20.806Z,379
2023-02-23T03:55:21.603Z,387
2023-02-23T03:57:21.631Z,378
2023-02-23T03:58:21.402Z,373
2023-02-23T03:59:21.047Z,365
2023-02-23T04:00:22.458Z,360
2023-02-23T04:01:22.078Z,365
2023-02-23T04:02:21.330Z,374
2023-02-23T04:03:21.305Z,369
2023-02-23T04:04:21.514Z,370
2023-02-23T04:05:21.364Z,371
2023-02-23T04:06:21.227Z,377
2023-02-23T04:07:21.776Z,381
2023-02-23T04:08:21.685Z,385
2023-02-23T04:09:21.162Z,386
2023-02-23T04:10:21.859Z,380
2023-02-23T04:11:21.840Z,373
2023-02-23T04:12:21.646Z,368
2023-02-23T04:13:21.426Z,370
2023-02-23T04:14:21.502Z,372
2023-02-23T04:15:22.381Z,376
2023-02-23T04:16:21.551Z,378
2023-02-23T04:17:20.936Z,376
2023-02-23T04:18:21.389Z,371
2023-02-23T04:20:22.427Z,375
2023-02-23T04:21:20.243Z,379
2023-02-23T04:22:21.725Z,379
2023-02-23T04:23:21.373Z,377
2023-02-23T04:24:21.340Z,376
2023-02-23T04:25:21.950Z,382
2023-02-23T04:26:21.418Z,383
2023-02-23T04:27:21.754Z,377
2023-02-23T04:28:22.298Z,368
2023-02-23T04:32:21.681Z,395
2023-02-23T04:34:21.155Z,385
2023-02-23T04:35:22.263Z,378
2023-02-23T04:36:21.643Z,383
2023-02-23T04:37:21.951Z,386
2023-02-23T04:38:21.474Z,385
2023-02-23T04:39:22.024Z,380
2023-02-23T04:40:24.282Z,386
2023-02-23T04:42:22.500Z,379
2023-02-23T04:43:21.294Z,375
2023-02-23T04:45:21.763Z,369
2023-02-23T04:46:21.521Z,373
2023-02-23T04:47:21.378Z,379
2023-02-23T04:49:21.839Z,386
2023-02-23T04:50:22.488Z,377
2023-02-23T04:51:21.420Z,383
2023-02-23T04:52:22.262Z,392
2023-02-23T04:53:21.465Z,377
2023-02-23T04:54:21.421Z,363
2023-02-23T04:55:21.706Z,362
2023-02-23T04:57:21.537Z,377
2023-02-23T04:58:21.384Z,384
2023-02-23T04:59:21.246Z,376
2023-02-23T05:00:23.595Z,379
2023-02-23T05:01:22.631Z,384
2023-02-23T05:02:21.409Z,389
2023-02-23T05:03:21.509Z,391
2023-02-23T05:04:21.371Z,380
2023-02-23T05:05:21.705Z,374
2023-02-23T05:06:22.006Z,375
2023-02-23T05:07:21.649Z,373
2023-02-23T05:08:21.519Z,373
2023-02-23T05:09:21.680Z,370
2023-02-23T05:10:21.864Z,379
2023-02-23T05:11:21.604Z,369
2023-02-23T05:12:21.757Z,384
2023-02-23T05:16:21.802Z,377
2023-02-23T05:17:22.254Z,381
2023-02-23T05:18:21.958Z,386
2023-02-23T05:19:21.672Z,377
2023-02-23T05:20:22.725Z,379
2023-02-23T05:21:21.831Z,377
2023-02-23T05:22:21.757Z,376
2023-02-23T05:23:22.012Z,368
2023-02-23T05:24:21.808Z,376
2023-02-23T05:25:22.222Z,381
2023-02-23T05:26:21.710Z,374
2023-02-23T05:28:21.408Z,381
2023-02-23T05:29:21.102Z,386
2023-02-23T05:30:22.473Z,378
2023-02-23T05:31:21.950Z,370
2023-02-23T05:32:21.723Z,383
2023-02-23T05:33:20.750Z,385
2023-02-23T05:34:22.008Z,379
2023-02-23T05:35:21.682Z,382
2023-02-23T05:38:21.494Z,374
2023-02-23T05:39:21.607Z,367
2023-02-23T05:40:21.629Z,372
2023-02-23T05:41:22.689Z,384
2023-02-23T05:42:21.779Z,387
2023-02-23T05:43:21.894Z,371
2023-02-23T05:44:21.621Z,372
2023-02-23T05:45:22.586Z,375
2023-02-23T05:46:21.801Z,373
2023-02-23T05:47:22.320Z,370
2023-02-23T05:48:22.444Z,369
2023-02-23T05:49:22.466Z,379
2023-02-23T05:50:22.213Z,378
2023-02-23T05:51:22.446Z,373
2023-02-23T05:53:22.264Z,375
2023-02-23T05:54:21.875Z,372
2023-02-23T05:55:22.067Z,388
2023-02-23T05:58:21.982Z,391
2023-02-23T05:59:21.873Z,388
2023-02-23T06:00:23.446Z,378
2023-02-23T06:01:22.206Z,383
2023-02-23T06:02:21.677Z,386
2023-02-23T06:03:22.122Z,390
2023-02-23T06:04:22.377Z,389
2023-02-23T06:05:22.875Z,378
2023-02-23T06:06:22.565Z,381
2023-02-23T06:07:21.914Z,379
2023-02-23T06:08:22.544Z,368
2023-02-23T06:09:21.685Z,364
2023-02-23T06:10:22.058Z,373
2023-02-23T06:11:21.823Z,377
2023-02-23T06:12:22.278Z,380
2023-02-23T06:13:22.391Z,378
2023-02-23T06:14:21.785Z,380
2023-02-23T06:15:22.046Z,382
2023-02-23T06:16:22.399Z,377
2023-02-23T06:17:22.148Z,388
2023-02-23T06:18:22.605Z,385
2023-02-23T06:20:21.829Z,387
2023-02-23T06:21:21.752Z,375
2023-02-23T06:22:22.132Z,369
2023-02-23T06:23:22.514Z,364
2023-02-23T06:24:22.116Z,373
2023-02-23T06:25:21.565Z,370
2023-02-23T06:26:35.510Z,379
2023-02-23T06:27:21.556Z,378
2023-02-23T06:28:36.504Z,379
2023-02-23T06:29:21.366Z,377
2023-02-23T06:30:36.778Z,369
2023-02-23T06:31:21.441Z,377
2023-02-23T06:32:22.300Z,380
2023-02-23T06:33:21.520Z,377
2023-02-23T06:34:22.270Z,383
2023-02-23T06:35:21.532Z,381
2023-02-23T06:36:21.773Z,377
2023-02-23T06:37:21.285Z,372
2023-02-23T06:38:21.558Z,373
2023-02-23T06:39:21.580Z,383
2023-02-23T06:40:22.060Z,393
2023-02-23T06:41:21.531Z,387
2023-02-23T06:42:21.615Z,384
2023-02-23T06:43:23.172Z,379
2023-02-23T06:44:21.198Z,381
2023-02-23T06:45:21.900Z,388
2023-02-23T06:46:22.625Z,379
2023-02-23T06:47:22.237Z,376
2023-02-23T06:48:22.156Z,373
2023-02-23T06:49:22.449Z,383
2023-02-23T06:50:22.943Z,382
2023-02-23T06:51:21.517Z,379
2023-02-23T06:52:21.356Z,374
2023-02-23T06:53:21.108Z,379
2023-02-23T06:54:21.734Z,392
2023-02-23T06:55:22.185Z,386
2023-02-23T06:56:21.762Z,391
2023-02-23T06:57:21.659Z,389
2023-02-23T06:58:22.084Z,379
2023-02-23T06:59:22.198Z,378
2023-02-23T07:00:46.542Z,391
2023-02-23T07:02:23.412Z,392
2023-02-23T07:03:22.537Z,386
2023-02-23T07:04:20.980Z,372
2023-02-23T07:07:22.054Z,374
2023-02-23T07:08:23.223Z,383
2023-02-23T07:09:22.290Z,376
2023-02-23T07:10:21.739Z,375
2023-02-23T07:11:21.922Z,370
2023-02-23T07:13:22.786Z,383
2023-02-23T07:15:23.347Z,380
2023-02-23T07:16:22.715Z,388
2023-02-23T07:17:22.093Z,377
2023-02-23T07:18:22.397Z,382
2023-02-23T07:20:22.670Z,374
2023-02-23T07:21:22.030Z,378
2023-02-23T07:23:23.999Z,383
2023-02-23T07:24:22.651Z,387
2023-02-23T07:25:23.275Z,389
2023-02-23T07:26:22.652Z,384
2023-02-23T07:27:22.518Z,374
2023-02-23T07:28:21.980Z,371
2023-02-23T07:29:22.122Z,394
2023-02-23T07:30:23.008Z,385
2023-02-23T07:31:23.113Z,381
2023-02-23T07:32:23.477Z,390
2023-02-23T07:33:22.254Z,382
2023-02-23T07:34:22.147Z,390
2023-02-23T07:35:23.413Z,389
2023-02-23T07:36:22.679Z,398
2023-02-23T07:37:23.269Z,389
2023-02-23T07:38:22.669Z,396
2023-02-23T07:39:22.900Z,403
2023-02-23T07:41:23.393Z,394
2023-02-23T07:43:22.618Z,395
2023-02-23T07:44:22.281Z,390
2023-02-23T07:45:23.412Z,381
2023-02-23T07:46:22.574Z,387
2023-02-23T07:47:22.487Z,386
2023-02-23T07:48:23.044Z,389
2023-02-23T07:49:21.016Z,384
2023-02-23T07:50:22.608Z,388
2023-02-23T07:51:21.931Z,387
2023-02-23T07:52:22.235Z,385
2023-02-23T07:53:22.240Z,390
2023-02-23T07:54:23.210Z,387
2023-02-23T07:56:23.181Z,393
2023-02-23T07:57:23.938Z,389
2023-02-23T07:58:22.328Z,390
2023-02-23T07:59:22.499Z,393
2023-02-23T08:00:23.505Z,395
2023-02-23T08:01:22.774Z,396
2023-02-23T08:02:22.694Z,397
2023-02-23T08:03:22.892Z,392
2023-02-23T08:05:26.474Z,382
2023-02-23T08:06:22.840Z,379
2023-02-23T08:07:22.690Z,388
2023-02-23T08:08:22.810Z,384
2023-02-23T08:09:23.710Z,386
2023-02-23T08:10:22.727Z,401
2023-02-23T08:11:23.125Z,398
2023-02-23T08:12:22.892Z,376
2023-02-23T08:13:22.834Z,382
2023-02-23T08:14:22.592Z,374
2023-02-23T08:15:22.653Z,382
2023-02-23T08:16:22.710Z,378
2023-02-23T08:20:22.848Z,373
2023-02-23T08:22:23.002Z,388
2023-02-23T08:23:22.865Z,387
2023-02-23T08:24:22.978Z,391
2023-02-23T08:25:23.377Z,388
2023-02-23T08:26:22.535Z,390
2023-02-23T08:27:23.011Z,381
2023-02-23T08:28:22.496Z,388
2023-02-23T08:29:22.530Z,382
2023-02-23T08:30:23.670Z,372
2023-02-23T08:31:23.579Z,380
2023-02-23T08:32:22.929Z,384
2023-02-23T08:33:23.543Z,389
2023-02-23T08:34:23.353Z,381
2023-02-23T08:35:23.770Z,378
2023-02-23T08:36:22.383Z,381
2023-02-23T08:37:27.181Z,389
2023-02-23T08:38:22.977Z,392
2023-02-23T08:39:27.994Z,383
2023-02-23T08:40:22.865Z,374
2023-02-23T08:41:22.589Z,390
2023-02-23T08:42:22.528Z,387
2023-02-23T08:43:22.611Z,371
2023-02-23T08:45:23.631Z,377
2023-02-23T08:46:22.551Z,379
2023-02-23T08:47:22.143Z,376
2023-02-23T08:48:22.719Z,372
2023-02-23T08:49:30.649Z,376
2023-02-23T08:50:22.729Z,375
2023-02-23T08:52:22.115Z,374
2023-02-23T08:53:36.605Z,375
2023-02-23T08:55:23.676Z,383
2023-02-23T08:56:22.076Z,387
2023-02-23T08:57:22.510Z,381
2023-02-23T08:58:22.587Z,377
2023-02-23T08:59:22.476Z,373
2023-02-23T09:01:23.184Z,376
2023-02-23T09:03:22.515Z,369
2023-02-23T09:04:22.596Z,373
2023-02-23T09:05:22.615Z,372
2023-02-23T09:06:22.454Z,365
2023-02-23T09:09:22.990Z,370
2023-02-23T09:10:23.414Z,369
2023-02-23T09:11:22.373Z,373
2023-02-23T09:12:22.115Z,365
2023-02-23T09:13:41.632Z,368
2023-02-23T09:14:22.574Z,373
2023-02-23T09:15:22.671Z,367
2023-02-23T09:16:23.011Z,370
2023-02-23T09:18:22.669Z,366
2023-02-23T09:19:21.951Z,379
2023-02-23T09:20:22.605Z,377
2023-02-23T09:21:22.508Z,371
2023-02-23T09:22:23.020Z,373
2023-02-23T09:23:22.105Z,375
2023-02-23T09:24:22.812Z,365
2023-02-23T09:25:22.377Z,362
2023-02-23T09:26:22.502Z,369
2023-02-23T09:27:22.398Z,367
2023-02-23T09:28:22.474Z,369
2023-02-23T09:29:22.134Z,376
2023-02-23T09:30:23.647Z,378
2023-02-23T09:31:22.652Z,377
2023-02-23T09:32:22.408Z,378
2023-02-23T09:33:23.205Z,381
2023-02-23T09:34:22.400Z,390
2023-02-23T09:35:23.357Z,393
2023-02-23T09:36:23.061Z,377
2023-02-23T09:37:22.024Z,363
2023-02-23T09:39:36.931Z,371
2023-02-23T09:41:22.691Z,369
2023-02-23T09:42:22.552Z,376
2023-02-23T09:43:23.208Z,375
2023-02-23T09:44:22.220Z,365
2023-02-23T09:45:22.047Z,366
2023-02-23T09:46:22.521Z,370
2023-02-23T09:47:23.114Z,379
2023-02-23T09:48:22.610Z,378
2023-02-23T09:49:22.161Z,379
2023-02-23T09:50:23.373Z,382
2023-02-23T09:51:22.520Z,371
2023-02-23T09:52:22.621Z,384
2023-02-23T09:53:22.776Z,389
2023-02-23T09:54:23.111Z,385
2023-02-23T09:55:23.611Z,377
2023-02-23T09:56:22.349Z,376
2023-02-23T09:57:22.599Z,368
2023-02-23T09:58:22.660Z,369
2023-02-23T09:59:22.228Z,366
2023-02-23T10:00:23.800Z,376
2023-02-23T10:01:23.987Z,380
2023-02-23T10:02:21.910Z,370
2023-02-23T10:03:23.517Z,380
2023-02-23T10:04:22.956Z,375
2023-02-23T10:05:23.373Z,365
2023-02-23T10:06:22.523Z,370
2023-02-23T10:07:22.195Z,367
2023-02-23T10:08:22.631Z,363
2023-02-23T10:09:23.083Z,376
2023-02-23T10:10:22.616Z,370
2023-02-23T10:11:23.821Z,369
2023-02-23T10:12:22.323Z,368
2023-02-23T10:13:22.485Z,374
2023-02-23T10:14:23.048Z,370
2023-02-23T10:15:24.251Z,362
2023-02-23T10:17:23.783Z,358
2023-02-23T10:18:22.372Z,363
2023-02-23T10:19:22.519Z,359
2023-02-23T10:20:23.300Z,361
2023-02-23T10:21:23.163Z,362
2023-02-23T10:22:22.844Z,358
2023-02-23T10:23:22.985Z,352
2023-02-23T10:24:22.905Z,357
2023-02-23T10:25:23.585Z,359
2023-02-23T10:26:23.016Z,350
2023-02-23T10:27:23.165Z,361
2023-02-23T10:28:22.320Z,365
2023-02-23T10:29:22.074Z,371
2023-02-23T10:30:22.917Z,354
2023-02-23T10:31:22.220Z,359
2023-02-23T10:32:22.349Z,365
2023-02-23T10:33:22.246Z,356
2023-02-23T10:34:23.633Z,369
2023-02-23T10:35:22.742Z,373
2023-02-23T10:36:22.896Z,359
2023-02-23T10:37:22.965Z,366
2023-02-23T10:38:22.593Z,377
2023-02-23T10:39:22.954Z,382
2023-02-23T10:40:23.559Z,380
2023-02-23T10:41:22.693Z,382
2023-02-23T10:42:22.337Z,387
2023-02-23T10:43:23.203Z,380
2023-02-23T10:44:22.894Z,362
2023-02-23T10:46:22.661Z,376
2023-02-23T10:47:23.086Z,382
2023-02-23T10:48:22.609Z,373
2023-02-23T10:50:22.636Z,377
2023-02-23T10:51:22.821Z,383
2023-02-23T10:52:21.798Z,390
2023-02-23T10:53:22.401Z,382
2023-02-23T10:54:22.382Z,373
2023-02-23T10:55:23.260Z,371
2023-02-23T10:56:22.956Z,375
2023-02-23T10:57:23.240Z,369
2023-02-23T10:58:23.218Z,368
2023-02-23T10:59:23.210Z,366
2023-02-23T11:00:24.170Z,379
2023-02-23T11:01:24.199Z,374
2023-02-23T11:02:24.530Z,375
2023-02-23T11:03:24.420Z,380
2023-02-23T11:04:28.725Z,369
2023-02-23T11:05:24.123Z,375
2023-02-23T11:06:23.416Z,368
2023-02-23T11:07:22.652Z,365
2023-02-23T11:08:30.043Z,361
2023-02-23T11:10:22.561Z,363
2023-02-23T11:11:23.047Z,370
2023-02-23T11:13:21.963Z,375
2023-02-23T11:14:22.168Z,370
2023-02-23T11:15:23.569Z,367
2023-02-23T11:16:22.373Z,370
2023-02-23T11:20:22.183Z,369
2023-02-23T11:21:23.303Z,372
2023-02-23T11:22:36.908Z,369
2023-02-23T11:23:23.059Z,371
2023-02-23T11:24:23.210Z,378
2023-02-23T11:25:22.564Z,375
2023-02-23T11:26:22.424Z,366
2023-02-23T11:27:22.510Z,374
2023-02-23T11:28:23.000Z,377
2023-02-23T11:29:22.202Z,376
2023-02-23T11:32:24.073Z,378
2023-02-23T11:33:22.610Z,372
2023-02-23T11:34:22.170Z,378
2023-02-23T11:35:22.082Z,382
2023-02-23T11:36:22.281Z,384
2023-02-23T11:37:22.124Z,374
2023-02-23T11:38:22.653Z,372
2023-02-23T11:39:22.445Z,374
2023-02-23T11:40:23.317Z,378
2023-02-23T11:41:22.605Z,375
2023-02-23T11:43:22.629Z,368
2023-02-23T11:44:22.064Z,368
2023-02-23T11:45:23.873Z,376
2023-02-23T11:46:23.347Z,379
2023-02-23T11:47:22.096Z,375
2023-02-23T11:48:22.514Z,368
2023-02-23T11:49:22.049Z,369
2023-02-23T11:50:22.126Z,372
2023-02-23T11:51:22.757Z,377
2023-02-23T11:52:22.002Z,376
2023-02-23T11:53:22.915Z,370
2023-02-23T11:55:23.051Z,368
2023-02-23T11:56:22.650Z,361
2023-02-23T11:57:23.230Z,366
2023-02-23T11:58:23.336Z,368
2023-02-23T11:59:22.783Z,375
2023-02-23T12:00:24.063Z,372
2023-02-23T12:01:23.277Z,379
2023-02-23T12:02:22.977Z,377
2023-02-23T12:03:22.210Z,373
2023-02-23T12:04:22.522Z,379
2023-02-23T12:06:23.601Z,373
2023-02-23T12:07:22.839Z,375
2023-02-23T12:08:23.307Z,380
2023-02-23T12:09:22.794Z,379
2023-02-23T12:10:23.070Z,382
2023-02-23T12:11:22.962Z,374
2023-02-23T12:13:23.908Z,372
2023-02-23T12:14:23.696Z,370
2023-02-23T12:15:23.457Z,374
2023-02-23T12:16:23.713Z,370
2023-02-23T12:17:22.728Z,365
2023-02-23T12:18:23.905Z,370
2023-02-23T12:19:22.933Z,383
2023-02-23T12:20:23.175Z,377
2023-02-23T12:21:23.083Z,374
2023-02-23T12:22:23.313Z,381
2023-02-23T12:23:23.193Z,382
2023-02-23T12:24:22.892Z,380
2023-02-23T12:25:23.321Z,367
2023-02-23T12:26:22.850Z,368
2023-02-23T12:27:22.584Z,377
2023-02-23T12:28:22.827Z,372
2023-02-23T12:29:22.882Z,368
2023-02-23T12:30:23.634Z,367
2023-02-23T12:31:22.967Z,360
2023-02-23T12:32:23.275Z,375
2023-02-23T12:33:22.224Z,377
2023-02-23T12:34:22.789Z,378
2023-02-23T12:35:22.832Z,375
2023-02-23T12:36:22.461Z,368
2023-02-23T12:37:22.772Z,362
2023-02-23T12:38:23.264Z,372
2023-02-23T12:39:22.070Z,373
2023-02-23T12:40:22.981Z,378
2023-02-23T12:41:22.909Z,370
2023-02-23T12:42:22.627Z,368
2023-02-23T12:43:22.993Z,371
2023-02-23T12:44:23.062Z,367
2023-02-23T12:45:22.992Z,374
2023-02-23T12:46:23.669Z,378
2023-02-23T12:47:22.670Z,376
2023-02-23T12:48:22.638Z,370
2023-02-23T12:49:23.534Z,380
2023-02-23T12:50:23.256Z,382
2023-02-23T12:51:22.911Z,385
2023-02-23T12:52:22.706Z,378
2023-02-23T12:53:23.079Z,372
2023-02-23T12:54:22.864Z,376
2023-02-23T12:55:22.702Z,382
2023-02-23T12:56:22.866Z,376
2023-02-23T12:57:22.366Z,377
2023-02-23T12:58:22.454Z,375
2023-02-23T13:00:23.773Z,377
2023-02-23T13:01:23.226Z,372
2023-02-23T13:02:22.606Z,385
2023-02-23T13:03:22.252Z,384
2023-02-23T13:04:23.451Z,380
2023-02-23T13:05:23.926Z,377
2023-02-23T13:06:23.247Z,386
2023-02-23T13:07:22.716Z,378
2023-02-23T13:08:22.781Z,372
2023-02-23T13:10:23.191Z,363
2023-02-23T13:11:22.944Z,362
2023-02-23T13:12:23.053Z,370
2023-02-23T13:13:22.982Z,389
2023-02-23T13:14:23.583Z,397
2023-02-23T13:15:24.038Z,381
2023-02-23T13:16:23.023Z,387
2023-02-23T13:17:23.021Z,386
2023-02-23T13:18:23.000Z,383
2023-02-23T13:19:22.915Z,372
2023-02-23T13:20:23.414Z,376
2023-02-23T13:22:22.786Z,364
2023-02-23T13:23:23.027Z,371
2023-02-23T13:27:28.045Z,370
2023-02-23T13:28:22.580Z,355
2023-02-23T13:29:28.148Z,360
2023-02-23T13:30:23.033Z,369
2023-02-23T13:31:27.117Z,364
2023-02-23T13:32:23.334Z,366
2023-02-23T13:33:35.046Z,374
2023-02-23T13:34:22.633Z,375
2023-02-23T13:35:23.100Z,371
2023-02-23T13:36:22.630Z,373
2023-02-23T13:37:23.077Z,370
2023-02-23T13:38:23.214Z,363
2023-02-23T13:39:22.379Z,365
2023-02-23T13:40:22.981Z,361
2023-02-23T13:41:23.107Z,368
2023-02-23T13:42:22.454Z,369
2023-02-23T13:43:22.261Z,364
2023-02-23T13:44:22.694Z,363
2023-02-23T13:45:22.781Z,367
2023-02-23T13:46:22.661Z,361
2023-02-23T13:47:23.427Z,367
2023-02-23T13:48:22.435Z,375
2023-02-23T13:49:22.214Z,374
2023-02-23T13:50:23.058Z,367
2023-02-23T13:51:23.224Z,360
2023-02-23T13:52:23.113Z,357
2023-02-23T13:53:22.769Z,370
2023-02-23T13:54:22.314Z,371
2023-02-23T13:55:22.650Z,372
2023-02-23T13:56:22.998Z,368
2023-02-23T13:57:22.758Z,378
2023-02-23T13:59:22.700Z,363
2023-02-23T14:00:24.076Z,359
2023-02-23T14:01:23.059Z,362
2023-02-23T14:02:22.585Z,368
2023-02-23T14:03:21.877Z,383
2023-02-23T14:04:22.304Z,370
2023-02-23T14:05:22.420Z,372
2023-02-23T14:06:22.736Z,365
2023-02-23T14:07:22.843Z,352
2023-02-23T14:08:22.983Z,349
2023-02-23T14:09:22.790Z,359
2023-02-23T14:10:23.279Z,365
2023-02-23T14:11:22.789Z,360
2023-02-23T14:12:23.121Z,364
2023-02-23T14:13:22.345Z,369
2023-02-23T14:14:22.712Z,372
2023-02-23T14:15:23.145Z,368
2023-02-23T14:16:23.351Z,372
2023-02-23T14:17:22.666Z,378
2023-02-23T14:18:22.839Z,373
2023-02-23T14:20:29.493Z,363
2023-02-23T14:21:22.848Z,364
2023-02-23T14:22:22.600Z,359
2023-02-23T14:23:22.649Z,362
2023-02-23T14:24:23.396Z,368
2023-02-23T14:26:25.845Z,376
2023-02-23T14:27:39.821Z,368
2023-02-23T14:28:23.160Z,351
2023-02-23T14:29:22.239Z,363
2023-02-23T14:30:22.898Z,371
2023-02-23T14:31:24.035Z,373
2023-02-23T14:32:23.470Z,366
2023-02-23T14:33:23.114Z,364
2023-02-23T14:34:22.568Z,368
2023-02-23T14:35:23.128Z,355
2023-02-23T14:37:22.846Z,369
2023-02-23T14:38:22.360Z,373
2023-02-23T14:39:22.783Z,369
2023-02-23T14:40:22.772Z,357
2023-02-23T14:41:22.681Z,356
2023-02-23T14:42:21.879Z,368
2023-02-23T14:43:22.950Z,361
2023-02-23T14:44:29.965Z,369
2023-02-23T14:45:22.799Z,357
2023-02-23T14:46:22.597Z,360
2023-02-23T14:47:22.666Z,363
2023-02-23T14:48:22.487Z,361
2023-02-23T14:49:22.613Z,360
2023-02-23T14:50:22.584Z,362
2023-02-23T14:51:22.526Z,358
2023-02-23T14:52:22.157Z,352
2023-02-23T14:53:22.821Z,359
2023-02-23T14:54:23.102Z,372
2023-02-23T14:55:23.250Z,373
2023-02-23T14:56:26.174Z,363
2023-02-23T14:57:22.656Z,358
2023-02-23T14:58:22.470Z,360
2023-02-23T14:59:22.292Z,370
2023-02-23T15:01:23.310Z,367
2023-02-23T15:02:22.954Z,366
2023-02-23T15:03:23.620Z,375
2023-02-23T15:04:23.034Z,370
2023-02-23T15:05:23.877Z,368
2023-02-23T15:06:25.619Z,370
2023-02-23T15:07:22.168Z,365
2023-02-23T15:08:23.280Z,364
2023-02-23T15:09:22.482Z,366
2023-02-23T15:10:23.510Z,352
2023-02-23T15:11:22.949Z,353
2023-02-23T15:12:23.057Z,358
2023-02-23T15:13:22.870Z,352
2023-02-23T15:14:27.975Z,348
2023-02-23T15:15:22.058Z,361
2023-02-23T15:16:23.151Z,370
2023-02-23T15:17:22.188Z,366
2023-02-23T15:18:23.146Z,361
2023-02-23T15:19:23.325Z,364
2023-02-23T15:20:23.681Z,358
2023-02-23T15:21:23.099Z,350
2023-02-23T15:23:22.886Z,360
2023-02-23T15:24:22.851Z,363
2023-02-23T15:25:23.039Z,354